Steinach, Austria
Current Conditions -  °F | °C
As of 1:50 PM on Friday 24 Oct 2014 (Local Time) from LOWI Reporting Station
Broken Clouds Broken Clouds  
Wind Chill: 46°   Ceiling: 2500
Heat Index: 46°   Visibility: 6mi
Dew Point: 39°   Wind: 2mph
Humidity: 76%   Direction: NA
Pressure: 30.18"   Gusts: NA
Location:  47.08°N, 11.47°E
Report Text: LOWI 241150Z VRB02KT 9999 FEW016 BKN025 08/04 Q1022 NOSIG
Loading
Personal Weather Stations






























Interactive Weather Map
Tropical Storm Tracking
New forecast layout! Learn more

10-Day Weather Forecast

Advertisements
Track Severe Weather on mobile